Time;durP1;ratioP1;P1;durP2;ratioP2;P2;SDS_P1;SDS_P2;PMS_P1;PMS_P2;Temp;Humidity;BMP_temperature;BMP_pressure;BME280_temperature;BME280_humidity;BME280_pressure;Samples;Min_cycle;Max_cycle;Signal;HPM_P1;HPM_P2
2022/08/01 00:00:11;;;;;;;6.00;3.00;;;;;;;16.65;100.00;99974.59;5075206;28;20127;-75
2022/08/01 00:02:40;;;;;;;4.07;2.58;;;;;;;16.56;100.00;99981.66;5075402;28;20076;-73
2022/08/01 00:05:10;;;;;;;4.60;2.90;;;;;;;16.62;100.00;99980.25;5075373;28;20478;-77
2022/08/01 00:07:38;;;;;;;4.22;2.65;;;;;;;16.82;100.00;99977.50;5075349;28;20040;-73
2022/08/01 00:10:09;;;;;;;5.13;2.72;;;;;;;16.87;100.00;99982.47;5075300;28;20093;-73
2022/08/01 00:12:38;;;;;;;4.10;2.75;;;;;;;16.93;100.00;99976.53;5075156;28;20512;-73
2022/08/01 00:15:07;;;;;;;7.05;2.80;;;;;;;17.12;100.00;99978.38;5075060;28;20048;-73
2022/08/01 00:17:38;;;;;;;5.15;2.33;;;;;;;17.10;100.00;99975.00;5075388;28;20079;-73
2022/08/01 00:20:10;;;;;;;5.22;2.50;;;;;;;17.03;100.00;99979.22;5075372;28;20062;-70
2022/08/01 00:22:39;;;;;;;6.15;2.60;;;;;;;17.16;100.00;99974.41;5073936;28;20504;-71
2022/08/01 00:25:08;;;;;;;4.70;2.70;;;;;;;17.17;100.00;99970.72;5075118;28;20044;-70
2022/08/01 00:27:36;;;;;;;6.63;2.60;;;;;;;17.15;100.00;99960.09;5074781;28;20037;-70
2022/08/01 00:30:06;;;;;;;5.63;2.70;;;;;;;17.15;100.00;99956.53;5074891;28;20044;-71
2022/08/01 00:32:43;;;;;;;4.18;2.33;;;;;;;17.04;100.00;99960.22;5074920;28;20045;-70
2022/08/01 00:35:13;;;;;;;4.43;2.50;;;;;;;17.10;100.00;99959.66;5074578;28;20067;-72
2022/08/01 00:37:41;;;;;;;4.47;2.33;;;;;;;17.15;100.00;99962.78;5075032;28;20094;-71
2022/08/01 00:40:10;;;;;;;5.30;2.50;;;;;;;17.15;100.00;99954.69;5074557;28;20436;-71
2022/08/01 00:42:39;;;;;;;4.03;2.55;;;;;;;17.07;100.00;99959.09;5074869;28;20044;-71
2022/08/01 00:45:12;;;;;;;4.05;2.42;;;;;;;17.01;100.00;99954.28;5074861;28;20041;-72
2022/08/01 00:47:40;;;;;;;5.25;2.40;;;;;;;16.97;100.00;99964.47;5074679;28;20098;-73
2022/08/01 00:50:11;;;;;;;5.05;2.42;;;;;;;17.02;100.00;99964.91;5074741;28;20040;-71
2022/08/01 00:52:41;;;;;;;5.03;2.50;;;;;;;17.04;100.00;99959.38;5074313;28;20114;-73
2022/08/01 00:55:11;;;;;;;4.63;2.65;;;;;;;17.25;100.00;99959.25;5074500;28;20039;-72
2022/08/01 00:57:42;;;;;;;4.25;2.47;;;;;;;17.12;100.00;99963.06;5074528;28;20119;-72
2022/08/01 01:00:31;;;;;;;4.53;2.42;;;;;;;17.09;100.00;99959.81;5074166;28;20068;-72
2022/08/01 01:03:19;;;;;;;6.00;2.60;;;;;;;17.11;100.00;99950.59;5074177;28;20553;-73
2022/08/01 01:06:07;;;;;;;3.92;2.58;;;;;;;17.14;100.00;99950.31;5074328;28;20040;-73
2022/08/01 01:08:42;;;;;;;6.10;2.40;;;;;;;17.22;100.00;99946.06;5071702;28;20090;-74
2022/08/01 01:11:17;;;;;;;4.38;2.58;;;;;;;17.05;100.00;99951.16;5074020;28;20044;-72
2022/08/01 01:13:53;;;;;;;4.00;2.40;;;;;;;17.04;100.00;99944.06;5072691;28;20063;-72
2022/08/01 01:16:22;;;;;;;4.03;2.38;;;;;;;17.05;100.00;99945.75;5073937;28;20036;-72
2022/08/01 01:18:54;;;;;;;4.50;2.67;;;;;;;17.04;100.00;99949.44;5073786;28;20051;-73
2022/08/01 01:21:48;;;;;;;3.58;2.42;;;;;;;16.83;100.00;99959.50;5073696;28;20079;-73
2022/08/01 01:24:30;;;;;;;6.03;2.58;;;;;;;16.75;100.00;99953.94;5073768;28;20040;-73
2022/08/01 01:27:07;;;;;;;4.18;2.58;;;;;;;16.57;100.00;99949.19;5074034;28;20393;-73
2022/08/01 01:29:43;;;;;;;4.57;2.70;;;;;;;16.54;100.00;99956.69;5073797;28;20115;-73
2022/08/01 01:32:33;;;;;;;4.75;2.55;;;;;;;16.59;100.00;99938.28;5072212;28;20052;-73
2022/08/01 01:35:06;;;;;;;4.88;2.78;;;;;;;16.64;100.00;99951.34;5073759;28;20075;-73
2022/08/01 01:37:36;;;;;;;4.03;2.60;;;;;;;16.53;100.00;99947.78;5073567;28;20049;-73
2022/08/01 01:40:07;;;;;;;4.88;2.63;;;;;;;16.49;100.00;99946.34;5073915;28;20289;-72
2022/08/01 01:42:37;;;;;;;4.72;2.63;;;;;;;16.43;100.00;99948.75;5073284;28;20044;-73
2022/08/01 01:45:08;;;;;;;4.18;2.78;;;;;;;16.38;100.00;99954.53;5073601;28;20036;-71
2022/08/01 01:47:39;;;;;;;6.32;2.90;;;;;;;16.34;100.00;99949.56;5073360;28;20063;-72
2022/08/01 01:50:09;;;;;;;3.30;2.42;;;;;;;16.30;100.00;99940.88;5073680;28;20041;-71
2022/08/01 01:52:40;;;;;;;4.70;2.75;;;;;;;16.25;100.00;99940.47;5073077;28;20044;-75
2022/08/01 01:55:11;;;;;;;3.85;2.72;;;;;;;16.29;100.00;99945.41;5071997;28;20045;-70
2022/08/01 01:57:41;;;;;;;4.40;2.67;;;;;;;16.30;100.00;99938.19;5073479;28;20041;-71
2022/08/01 02:00:14;;;;;;;5.18;2.90;;;;;;;16.20;100.00;99940.84;5073485;28;20044;-70
2022/08/01 02:02:44;;;;;;;7.18;3.05;;;;;;;16.19;100.00;99938.31;5073568;28;20157;-70
2022/08/01 02:05:13;;;;;;;4.72;3.03;;;;;;;16.20;100.00;99931.94;5071935;28;20044;-70
2022/08/01 02:07:43;;;;;;;5.00;2.80;;;;;;;16.18;100.00;99939.28;5073141;28;20045;-71
2022/08/01 02:10:12;;;;;;;5.95;2.67;;;;;;;16.26;100.00;99932.25;5073044;28;20045;-71
2022/08/01 02:12:45;;;;;;;4.47;3.08;;;;;;;16.28;100.00;99934.78;5072754;28;20075;-72
2022/08/01 02:15:18;;;;;;;5.47;2.92;;;;;;;16.19;100.00;99925.69;5073288;28;20044;-71
2022/08/01 02:17:49;;;;;;;;;;;;;;;16.27;100.00;99928.56;5073652;28;20041;-73
2022/08/01 02:20:18;;;;;;;3.97;2.80;;;;;;;16.28;100.00;99924.03;5072777;28;19920;-73
2022/08/01 02:22:51;;;;;;;5.05;2.80;;;;;;;16.24;100.00;99928.00;5073150;28;20489;-73
2022/08/01 02:25:23;;;;;;;5.55;2.95;;;;;;;16.19;100.00;99932.91;5072970;28;20045;-73
2022/08/01 02:28:00;;;;;;;5.03;2.60;;;;;;;16.34;100.00;99928.03;5072507;28;20464;-72
2022/08/01 02:30:34;;;;;;;5.20;2.95;;;;;;;16.29;100.00;99925.72;5072779;28;20040;-73
2022/08/01 02:33:06;;;;;;;4.65;2.80;;;;;;;16.13;100.00;99928.09;5073157;28;20048;-72
2022/08/01 02:35:46;;;;;;;5.80;2.83;;;;;;;16.06;100.00;99929.63;5072709;28;20053;-73
2022/08/01 02:38:41;;;;;;;6.10;3.10;;;;;;;15.98;100.00;99935.66;5072624;28;20044;-72
2022/08/01 02:41:13;;;;;;;5.20;3.08;;;;;;;15.91;100.00;99929.09;5072899;28;20059;-72
2022/08/01 02:43:47;;;;;;;5.68;3.08;;;;;;;15.83;100.00;99921.75;5072802;28;20040;-72
2022/08/01 02:46:26;;;;;;;5.25;2.90;;;;;;;15.83;100.00;99919.03;5072610;28;20040;-73
2022/08/01 02:48:59;;;;;;;5.35;3.10;;;;;;;15.82;100.00;99917.31;5072797;28;20041;-72
2022/08/01 02:51:29;;;;;;;6.07;3.10;;;;;;;15.85;100.00;99922.44;5072633;28;20075;-73
2022/08/01 02:53:58;;;;;;;4.75;2.95;;;;;;;16.03;100.00;99923.53;5072650;28;20150;-71
2022/08/01 02:56:34;;;;;;;4.75;2.80;;;;;;;16.52;100.00;99918.31;5072391;28;20048;-71
2022/08/01 02:59:06;;;;;;;4.43;2.65;;;;;;;16.54;100.00;99919.88;5073056;28;20128;-73
2022/08/01 03:01:37;;;;;;;4.85;2.90;;;;;;;16.65;100.00;99924.28;5072675;28;20048;-74
2022/08/01 03:04:09;;;;;;;5.50;3.00;;;;;;;16.89;100.00;99918.53;5072908;28;20045;-74
2022/08/01 03:06:39;;;;;;;5.45;2.92;;;;;;;16.90;100.00;99917.53;5071138;28;20127;-73
2022/08/01 03:09:12;;;;;;;5.72;3.13;;;;;;;16.85;100.00;99920.66;5072730;28;20066;-73
2022/08/01 03:11:43;;;;;;;4.85;2.78;;;;;;;16.81;100.00;99913.00;5072244;28;20098;-73
2022/08/01 03:14:13;;;;;;;4.72;3.10;;;;;;;16.75;100.00;99922.47;5072273;28;20098;-74
2022/08/01 03:16:45;;;;;;;4.20;2.70;;;;;;;16.69;100.00;99917.63;5072203;28;20059;-73
2022/08/01 03:19:14;;;;;;;5.45;2.97;;;;;;;16.68;100.00;99917.75;5072675;28;20075;-71
2022/08/01 03:21:45;;;;;;;4.22;2.97;;;;;;;16.77;100.00;99914.25;5072334;28;20041;-72
2022/08/01 03:24:15;;;;;;;5.20;3.00;;;;;;;16.83;100.00;99916.41;5072554;28;20454;-72
2022/08/01 03:26:45;;;;;;;5.45;3.20;;;;;;;16.78;100.00;99906.03;5072091;28;20072;-72
2022/08/01 03:29:17;;;;;;;5.97;3.20;;;;;;;16.77;100.00;99916.94;5072623;28;20052;-72
2022/08/01 03:31:49;;;;;;;6.50;3.15;;;;;;;16.82;100.00;99909.31;5073196;28;20093;-72
2022/08/01 03:34:20;;;;;;;5.72;3.60;;;;;;;16.84;100.00;99907.31;5074733;28;20056;-72
2022/08/01 03:36:51;;;;;;;4.95;3.45;;;;;;;16.70;100.00;99907.75;5074493;28;20504;-72
2022/08/01 03:39:22;;;;;;;4.70;3.17;;;;;;;16.79;100.00;99912.25;5075700;28;20124;-72
2022/08/01 03:41:56;;;;;;;4.78;3.15;;;;;;;16.82;100.00;99904.78;5075950;28;20041;-72
2022/08/01 03:44:28;;;;;;;5.97;3.50;;;;;;;16.86;100.00;99906.19;5074301;28;20405;-70
2022/08/01 03:47:01;;;;;;;4.97;3.40;;;;;;;16.93;100.00;99898.41;5075869;28;20044;-70
2022/08/01 03:49:31;;;;;;;;;;;;;;;17.07;100.00;99906.03;5075859;28;20405;-71
2022/08/01 03:52:03;;;;;;;5.30;3.50;;;;;;;17.25;100.00;99902.63;5075592;28;20436;-70
2022/08/01 03:54:35;;;;;;;6.40;3.30;;;;;;;17.28;100.00;99911.31;5075430;28;20041;-71
2022/08/01 03:57:06;;;;;;;6.80;3.40;;;;;;;17.38;100.00;99912.16;5075510;28;20045;-71
2022/08/01 03:59:37;;;;;;;4.68;3.25;;;;;;;17.59;100.00;99920.06;5075200;28;20044;-71
2022/08/01 04:02:08;;;;;;;6.10;3.40;;;;;;;17.94;100.00;99919.41;5075363;28;20045;-72
2022/08/01 04:04:36;;;;;;;6.30;3.00;;;;;;;18.41;100.00;99929.28;5074084;28;20083;-71
2022/08/01 04:07:06;;;;;;;5.65;3.38;;;;;;;19.12;100.00;99922.16;5075187;28;20047;-72
2022/08/01 04:09:35;;;;;;;5.47;3.10;;;;;;;19.62;100.00;99923.44;5075413;28;20055;-71
2022/08/01 04:12:04;;;;;;;5.03;2.88;;;;;;;20.46;100.00;99926.31;5075475;28;20048;-71
2022/08/01 04:14:39;;;;;;;5.15;2.60;;;;;;;20.83;100.00;99928.59;5074905;28;20477;-71
2022/08/01 04:17:09;;;;;;;4.93;2.97;;;;;;;21.15;100.00;99927.81;5074204;28;20400;-70
2022/08/01 04:19:37;;;;;;;7.38;3.05;;;;;;;21.10;100.00;99924.75;5074829;28;20490;-70
2022/08/01 04:22:06;;;;;;;3.92;2.75;;;;;;;21.27;100.00;99930.25;5075086;28;20040;-73
2022/08/01 04:24:36;;;;;;;4.68;2.92;;;;;;;21.16;100.00;99934.09;5074813;28;20040;-74
2022/08/01 04:27:09;;;;;;;5.38;2.85;;;;;;;21.35;100.00;99938.38;5074793;28;20127;-74
2022/08/01 04:29:39;;;;;;;5.68;3.08;;;;;;;21.04;100.00;99933.59;5074867;28;20405;-74
2022/08/01 04:32:12;;;;;;;6.85;3.30;;;;;;;20.36;100.00;99930.94;5075107;28;20072;-71
2022/08/01 04:34:45;;;;;;;5.30;2.90;;;;;;;20.07;100.00;99933.19;5073288;28;20044;-72
2022/08/01 04:37:17;;;;;;;5.85;3.20;;;;;;;20.55;100.00;99933.44;5074919;28;20091;-72
2022/08/01 04:39:47;;;;;;;5.30;3.10;;;;;;;20.73;100.00;99932.47;5074494;28;20066;-72
2022/08/01 04:42:18;;;;;;;5.50;3.30;;;;;;;21.11;100.00;99926.44;5074909;28;20485;-72
2022/08/01 04:44:58;;;;;;;6.07;3.80;;;;;;;21.65;100.00;99934.97;5074871;28;20040;-72
2022/08/01 04:47:28;;;;;;;4.60;2.92;;;;;;;22.14;100.00;99931.34;5074189;28;20050;-74
2022/08/01 04:49:57;;;;;;;7.70;3.03;;;;;;;22.61;100.00;99942.19;5074654;28;20048;-72
2022/08/01 04:52:34;;;;;;;5.00;2.78;;;;;;;22.81;100.00;99939.88;5074586;28;20058;-72
2022/08/01 04:55:02;;;;;;;4.60;2.85;;;;;;;22.60;100.00;99935.06;5074261;28;20495;-70
2022/08/01 04:57:31;;;;;;;7.25;2.97;;;;;;;23.02;100.00;99926.53;5074259;28;20075;-71
2022/08/01 05:00:06;;;;;;;5.05;3.00;;;;;;;24.08;100.00;99932.94;5074149;28;20044;-69
2022/08/01 05:02:36;;;;;;;6.38;2.90;;;;;;;24.41;100.00;99934.25;5073929;28;20052;-69
2022/08/01 05:05:05;;;;;;;3.72;2.70;;;;;;;23.64;100.00;99933.69;5074394;28;20126;-70
2022/08/01 05:07:35;;;;;;;5.78;2.90;;;;;;;24.65;100.00;99932.28;5073949;28;20044;-70
2022/08/01 05:10:12;;;;;;;6.20;3.10;;;;;;;24.69;100.00;99936.28;5074114;28;20037;-69
2022/08/01 05:12:40;;;;;;;5.32;2.70;;;;;;;24.16;100.00;99936.41;5072380;28;20050;-68
2022/08/01 05:15:09;;;;;;;4.80;2.75;;;;;;;23.42;100.00;99936.25;5073622;28;20049;-69
2022/08/01 05:17:44;;;;;;;5.68;2.85;;;;;;;24.40;100.00;99940.75;5072352;28;20055;-69
2022/08/01 05:20:13;;;;;;;5.45;2.95;;;;;;;24.57;100.00;99940.56;5073972;28;20082;-70
2022/08/01 05:22:42;;;;;;;5.13;2.80;;;;;;;25.14;100.00;99934.31;5073460;28;20036;-69
2022/08/01 05:25:10;;;;;;;5.00;2.83;;;;;;;25.14;100.00;99934.31;5073400;28;20075;-70
2022/08/01 05:27:41;;;;;;;7.78;2.97;;;;;;;25.13;100.00;99933.50;5073380;28;20098;-70
2022/08/01 05:30:10;;;;;;;8.18;2.80;;;;;;;25.61;93.06;99928.25;5073333;28;20049;-71
2022/08/01 05:32:39;;;;;;;4.05;2.50;;;;;;;25.97;77.93;99922.69;5073398;28;20048;-71
2022/08/01 05:35:09;;;;;;;4.18;2.72;;;;;;;26.24;72.32;99929.16;5073190;28;20091;-70
2022/08/01 05:37:38;;;;;;;5.95;2.72;;;;;;;26.67;65.06;99928.97;5072268;28;20044;-71
2022/08/01 05:40:07;;;;;;;5.28;2.50;;;;;;;26.44;60.64;99932.88;5073487;28;20052;-71
2022/08/01 05:42:36;;;;;;;6.40;2.50;;;;;;;25.96;60.53;99924.59;5072027;28;20056;-71
2022/08/01 05:45:06;;;;;;;6.05;2.90;;;;;;;26.25;59.31;99930.88;5072234;28;20057;-70
2022/08/01 05:47:34;;;;;;;6.65;2.67;;;;;;;26.22;59.10;99936.72;5073098;28;20044;-71
2022/08/01 05:50:11;;;;;;;6.88;2.92;;;;;;;26.25;58.26;99931.69;5072014;28;20123;-71
2022/08/01 05:52:39;;;;;;;4.65;2.55;;;;;;;26.79;53.66;99936.38;5073041;28;20075;-70
2022/08/01 05:55:09;;;;;;;5.25;2.58;;;;;;;27.18;51.51;99948.53;5072936;28;20041;-70
2022/08/01 05:57:37;;;;;;;5.20;2.28;;;;;;;27.00;51.79;99940.03;5070136;28;20043;-72
2022/08/01 06:00:09;;;;;;;5.43;2.60;;;;;;;27.27;50.65;99936.34;5064452;28;20056;-72
2022/08/01 06:02:41;;;;;;;5.07;2.60;;;;;;;27.05;50.26;99938.41;5053081;28;20444;-72
2022/08/01 06:05:12;;;;;;;4.70;2.40;;;;;;;27.93;45.16;99922.69;5052839;28;20053;-72
2022/08/01 06:07:41;;;;;;;5.20;2.60;;;;;;;28.28;44.55;99924.28;5052458;28;20049;-72
2022/08/01 06:10:10;;;;;;;6.78;2.80;;;;;;;27.89;44.67;99932.41;5052989;28;20041;-70
2022/08/01 06:12:39;;;;;;;3.63;2.30;;;;;;;27.61;44.62;99927.09;5052361;28;20106;-70
2022/08/01 06:15:08;;;;;;;4.63;2.50;;;;;;;27.99;44.11;99929.22;5052635;28;20124;-71
2022/08/01 06:17:36;;;;;;;4.15;2.40;;;;;;;27.59;45.56;99933.81;5052320;28;20041;-71
2022/08/01 06:20:09;;;;;;;7.05;2.40;;;;;;;28.16;44.13;99935.06;5052879;28;20099;-71
2022/08/01 06:22:39;;;;;;;4.20;2.28;;;;;;;27.95;44.27;99936.16;5052565;28;20562;-71
2022/08/01 06:25:09;;;;;;;6.93;2.67;;;;;;;28.34;43.38;99938.00;5052985;28;20127;-71
2022/08/01 06:27:37;;;;;;;5.40;2.40;;;;;;;28.35;43.65;99933.38;5056753;28;20378;-71
2022/08/01 06:30:07;;;;;;;5.68;2.70;;;;;;;27.71;45.23;99936.84;5072551;28;20052;-71
2022/08/01 06:32:35;;;;;;;5.50;2.30;;;;;;;28.04;43.61;99932.16;5072737;28;20045;-69
2022/08/01 06:35:04;;;;;;;5.85;2.42;;;;;;;28.28;43.11;99944.38;5070923;28;20453;-70
2022/08/01 06:37:33;;;;;;;4.75;2.70;;;;;;;27.96;44.07;99940.59;5072227;28;20078;-71
2022/08/01 06:40:04;;;;;;;5.93;2.42;;;;;;;29.14;41.28;99943.19;5072511;28;20052;-68
2022/08/01 06:42:35;;;;;;;5.28;2.20;;;;;;;28.52;42.83;99940.06;5072280;28;20759;-73
2022/08/01 06:45:03;;;;;;;5.15;2.35;;;;;;;28.64;42.86;99948.47;5072346;28;20047;-71
2022/08/01 06:47:32;;;;;;;6.55;2.50;;;;;;;28.99;41.02;99943.50;5070962;28;20051;-72
2022/08/01 06:50:02;;;;;;;4.63;2.30;;;;;;;29.51;40.21;99950.56;5072514;28;20123;-68
2022/08/01 06:52:30;;;;;;;5.35;2.33;;;;;;;28.58;42.20;99949.34;5064128;28;20070;-73
2022/08/01 06:54:58;;;;;;;6.03;2.20;;;;;;;27.31;45.51;99959.53;5054253;28;20044;-74
2022/08/01 06:57:28;;;;;;;9.50;2.67;;;;;;;28.38;42.86;99953.00;5052440;28;20045;-72
2022/08/01 06:59:56;;;;;;;4.60;2.30;;;;;;;27.71;43.68;99954.13;5052483;28;20397;-70
2022/08/01 07:02:25;;;;;;;5.22;2.50;;;;;;;26.70;46.56;99951.28;5051514;28;20052;-71
2022/08/01 07:04:53;;;;;;;4.80;2.50;;;;;;;27.22;45.78;99948.97;5051530;28;20931;-70
2022/08/01 07:07:21;;;;;;;4.32;2.22;;;;;;;27.20;43.60;99951.91;5069263;28;20119;-70
2022/08/01 07:09:49;;;;;;;6.07;2.50;;;;;;;26.63;46.42;99947.69;5075076;28;20144;-70
2022/08/01 07:12:19;;;;;;;4.68;2.63;;;;;;;26.71;46.45;99952.97;5076535;28;20040;-70
2022/08/01 07:14:49;;;;;;;3.30;2.15;;;;;;;26.39;46.05;99938.09;5075911;28;20079;-70
2022/08/01 07:17:17;;;;;;;5.28;2.45;;;;;;;26.72;46.46;99949.19;5076106;28;20519;-70
2022/08/01 07:19:48;;;;;;;4.35;2.50;;;;;;;26.53;46.55;99934.38;5076022;28;20456;-70
2022/08/01 07:22:16;;;;;;;4.43;2.35;;;;;;;26.41;48.74;99935.16;5074736;28;20413;-70
2022/08/01 07:24:50;;;;;;;5.03;2.40;;;;;;;26.65;46.70;99942.03;5075940;28;20096;-70
2022/08/01 07:27:21;;;;;;;4.68;2.60;;;;;;;26.44;46.39;99935.63;5076353;28;20048;-70
2022/08/01 07:29:54;;;;;;;3.97;2.40;;;;;;;25.71;48.65;99938.88;5076041;28;20049;-70
2022/08/01 07:32:22;;;;;;;5.20;2.38;;;;;;;25.59;50.04;99944.84;5074591;28;20060;-70
2022/08/01 07:34:51;;;;;;;4.93;2.42;;;;;;;26.07;47.64;99941.47;5074030;28;20057;-70
2022/08/01 07:37:19;;;;;;;4.78;2.88;;;;;;;25.80;48.38;99945.88;5076184;28;20437;-70
2022/08/01 07:40:09;;;;;;;7.13;2.45;;;;;;;25.72;47.35;99940.56;5075914;28;20103;-70
2022/08/01 07:42:38;;;;;;;4.43;2.45;;;;;;;25.60;49.28;99937.50;5075434;28;20386;-70
2022/08/01 07:45:09;;;;;;;5.53;2.42;;;;;;;25.61;48.12;99936.47;5075756;28;20048;-70
2022/08/01 07:47:38;;;;;;;4.15;2.38;;;;;;;25.69;49.38;99937.16;5075677;28;20043;-70
2022/08/01 07:50:08;;;;;;;4.75;2.47;;;;;;;25.48;49.99;99939.94;5075723;28;20492;-70
2022/08/01 07:52:36;;;;;;;5.45;2.20;;;;;;;25.34;49.00;99932.63;5075423;28;20044;-71
2022/08/01 07:55:05;;;;;;;3.72;2.28;;;;;;;25.92;46.43;99942.41;5075429;28;20488;-70
2022/08/01 07:57:33;;;;;;;5.00;2.22;;;;;;;25.79;44.66;99946.94;5075429;28;20079;-70
2022/08/01 08:00:03;;;;;;;4.65;2.30;;;;;;;25.74;43.58;99933.00;5074607;28;20135;-70
2022/08/01 08:02:33;;;;;;;3.50;2.20;;;;;;;25.77;44.68;99932.59;5075519;28;20048;-70
2022/08/01 08:05:01;;;;;;;4.35;2.80;;;;;;;25.94;44.71;99934.84;5074355;28;20549;-70
2022/08/01 08:07:29;;;;;;;3.90;2.15;;;;;;;25.93;45.41;99932.31;5075554;28;20068;-70
2022/08/01 08:10:00;;;;;;;3.95;2.40;;;;;;;26.05;44.36;99930.72;5074095;28;20049;-71
2022/08/01 08:12:28;;;;;;;5.00;2.30;;;;;;;26.31;45.75;99934.66;5075103;28;20049;-70
2022/08/01 08:14:58;;;;;;;3.92;2.28;;;;;;;26.48;41.47;99930.59;5074982;28;20041;-70
2022/08/01 08:17:26;;;;;;;3.55;2.10;;;;;;;26.68;41.56;99934.25;5073474;28;20040;-70
2022/08/01 08:19:57;;;;;;;3.83;2.10;;;;;;;26.61;39.66;99929.78;5074999;28;20423;-70
2022/08/01 08:22:25;;;;;;;3.20;1.88;;;;;;;26.77;37.06;99924.81;5074973;28;20125;-70
2022/08/01 08:24:53;;;;;;;3.17;2.10;;;;;;;27.09;36.48;99939.66;5074929;28;20115;-71
2022/08/01 08:27:27;;;;;;;3.60;2.00;;;;;;;26.90;36.58;99925.91;5074053;28;20366;-70
2022/08/01 08:29:56;;;;;;;3.92;2.20;;;;;;;27.11;35.72;99933.97;5073484;28;20051;-70
2022/08/01 08:32:25;;;;;;;3.58;2.10;;;;;;;27.06;35.92;99928.28;5073653;28;20044;-70
2022/08/01 08:34:53;;;;;;;3.85;2.30;;;;;;;26.99;36.26;99932.88;5073909;28;20056;-70
2022/08/01 08:37:22;;;;;;;4.60;2.35;;;;;;;26.88;39.18;99947.16;5074499;28;20044;-70
2022/08/01 08:39:53;;;;;;;4.82;2.10;;;;;;;27.03;40.14;99950.63;5074161;28;20482;-70
2022/08/01 08:42:21;;;;;;;4.07;2.20;;;;;;;26.02;42.79;99952.97;5074611;28;20123;-70
2022/08/01 08:44:50;;;;;;;4.95;2.33;;;;;;;26.10;42.10;99952.84;5072793;28;20055;-70
2022/08/01 08:47:19;;;;;;;5.03;2.22;;;;;;;25.89;43.19;99958.38;5074215;28;20071;-70
2022/08/01 08:49:50;;;;;;;4.88;2.30;;;;;;;25.81;43.79;99966.69;5074080;28;20055;-70
2022/08/01 08:52:20;;;;;;;3.80;2.30;;;;;;;25.73;44.13;99964.09;5073173;28;20041;-70
2022/08/01 08:54:52;;;;;;;8.18;2.60;;;;;;;25.51;44.01;99969.56;5074227;28;20043;-70
2022/08/01 08:57:21;;;;;;;6.77;2.53;;;;;;;25.82;42.78;99971.13;5073274;28;20102;-70
2022/08/01 08:59:53;;;;;;;3.33;2.38;;;;;;;25.54;44.84;99962.84;5072858;28;20528;-70
2022/08/01 09:02:23;;;;;;;8.07;2.40;;;;;;;25.73;44.69;99972.31;5073886;28;20048;-71
2022/08/01 09:04:52;;;;;;;3.78;2.10;;;;;;;25.99;43.14;99966.22;5074096;28;20094;-70
2022/08/01 09:07:20;;;;;;;4.13;2.30;;;;;;;25.91;44.80;99970.78;5074358;28;20129;-70
2022/08/01 09:09:50;;;;;;;4.75;2.60;;;;;;;25.78;44.73;99967.09;5072718;28;20056;-70
2022/08/01 09:12:19;;;;;;;3.67;2.28;;;;;;;25.37;45.08;99959.53;5073938;28;20051;-70
2022/08/01 09:14:49;;;;;;;4.05;2.25;;;;;;;25.25;44.92;99969.28;5073503;28;20072;-70
2022/08/01 09:17:18;;;;;;;4.80;2.53;;;;;;;25.47;45.45;99976.44;5072617;28;20132;-70
2022/08/01 09:19:51;;;;;;;3.90;2.40;;;;;;;25.95;43.00;99976.66;5072660;28;20058;-70
2022/08/01 09:22:24;;;;;;;4.18;2.40;;;;;;;26.33;41.69;99973.56;5072903;28;20044;-70
2022/08/01 09:25:04;;;;;;;4.53;2.20;;;;;;;26.10;43.14;99982.91;5073479;28;20441;-70
2022/08/01 09:27:34;;;;;;;4.75;2.35;;;;;;;26.07;41.97;99988.78;5073604;28;20125;-70
2022/08/01 09:30:11;;;;;;;6.78;2.75;;;;;;;25.99;43.39;99978.00;5072923;28;20123;-70
2022/08/01 09:32:57;;;;;;;4.88;2.45;;;;;;;26.21;42.13;99976.88;5072309;28;20048;-70
2022/08/01 09:35:28;;;;;;;4.88;2.80;;;;;;;26.27;43.39;99977.13;5072063;28;20060;-70
2022/08/01 09:38:18;;;;;;;6.13;2.50;;;;;;;26.51;42.32;99979.41;5072202;28;20106;-70
2022/08/01 09:40:50;;;;;;;4.35;2.30;;;;;;;26.46;41.75;99977.28;5073435;28;20044;-70
2022/08/01 09:43:19;;;;;;;4.63;2.45;;;;;;;26.45;42.27;99974.75;5073882;28;20101;-70
2022/08/01 09:45:48;;;;;;;6.50;2.50;;;;;;;26.72;41.38;99979.28;5073370;28;20127;-71
2022/08/01 09:48:20;;;;;;;4.68;2.40;;;;;;;26.65;43.65;99972.97;5073336;28;20123;-70
2022/08/01 09:50:55;;;;;;;3.95;2.30;;;;;;;26.83;43.54;99975.16;5071967;28;20131;-70
2022/08/01 09:53:47;;;;;;;4.22;2.50;;;;;;;26.12;43.24;99967.13;5073384;28;20086;-70
2022/08/01 09:56:23;;;;;;;3.70;2.40;;;;;;;26.48;43.16;99972.44;5072268;28;20051;-71
2022/08/01 09:58:52;;;;;;;4.72;2.25;;;;;;;26.42;42.91;99972.41;5073221;28;20040;-70
2022/08/01 10:01:27;;;;;;;5.30;2.40;;;;;;;26.85;43.15;99972.19;5073384;28;20148;-70
2022/08/01 10:04:08;;;;;;;5.53;2.33;;;;;;;26.76;42.05;99975.09;5072929;28;20050;-70
2022/08/01 10:06:38;;;;;;;3.72;2.30;;;;;;;26.82;41.84;99976.16;5072093;28;20133;-70
2022/08/01 10:09:08;;;;;;;4.22;2.40;;;;;;;27.37;40.83;99969.63;5073376;28;20044;-70
2022/08/01 10:11:39;;;;;;;4.30;2.25;;;;;;;27.33;39.38;99968.38;5073473;28;20055;-70
2022/08/01 10:14:08;;;;;;;6.23;2.80;;;;;;;27.38;40.08;99974.06;5071355;28;20387;-71
2022/08/01 10:16:37;;;;;;;3.80;2.40;;;;;;;27.38;38.46;99978.69;5072935;28;20477;-70
2022/08/01 10:19:08;;;;;;;4.75;2.40;;;;;;;27.47;38.56;99980.19;5072545;28;20093;-70
2022/08/01 10:21:43;;;;;;;6.45;2.47;;;;;;;27.47;38.72;99979.34;5071955;28;20048;-70
2022/08/01 10:24:28;;;;;;;4.30;2.30;;;;;;;27.31;39.87;99980.56;5072991;28;20072;-70
2022/08/01 10:27:04;;;;;;;4.93;2.30;;;;;;;26.94;39.51;99982.75;5072813;28;20098;-69
2022/08/01 10:29:46;;;;;;;5.63;2.55;;;;;;;27.07;40.25;99976.50;5072754;28;20040;-70
2022/08/01 10:32:36;;;;;;;4.75;2.60;;;;;;;27.23;39.32;99972.56;5072788;28;20079;-70
2022/08/01 10:35:07;;;;;;;4.65;2.50;;;;;;;27.52;40.51;99971.34;5072647;28;20045;-70
2022/08/01 10:37:43;;;;;;;4.32;2.70;;;;;;;27.16;39.44;99967.06;5071479;28;20053;-70
2022/08/01 10:40:21;;;;;;;5.50;2.50;;;;;;;27.17;39.10;99968.75;5073198;28;20094;-70
2022/08/01 10:43:00;;;;;;;6.15;2.60;;;;;;;27.32;39.30;99958.47;5075471;28;20547;-70
2022/08/01 10:45:29;;;;;;;6.15;2.50;;;;;;;27.16;38.90;99968.97;5077101;28;20090;-70
2022/08/01 10:48:03;;;;;;;6.03;2.60;;;;;;;27.27;39.28;99966.44;5076951;28;20051;-71
2022/08/01 10:50:36;;;;;;;4.70;2.58;;;;;;;27.39;37.84;99967.50;5076691;28;20087;-70
2022/08/01 10:53:06;;;;;;;;;;;;;;;27.31;38.40;99965.00;5077067;28;20048;-70
2022/08/01 10:55:52;;;;;;;4.85;2.50;;;;;;;27.56;38.67;99961.66;5076706;28;20397;-70
2022/08/01 10:58:26;;;;;;;4.28;2.60;;;;;;;27.56;38.91;99953.44;5076236;28;20119;-70
2022/08/01 11:01:15;;;;;;;3.92;2.50;;;;;;;27.50;37.54;99968.78;5074986;28;20048;-71
2022/08/01 11:03:56;;;;;;;3.92;2.50;;;;;;;27.46;37.79;99953.00;5076732;28;20399;-70
2022/08/01 11:06:40;;;;;;;4.00;2.42;;;;;;;27.53;36.56;99951.97;5076612;28;20098;-70
2022/08/01 11:09:24;;;;;;;5.32;2.60;;;;;;;27.52;37.35;99954.91;5074788;28;20523;-70
2022/08/01 11:12:08;;;;;;;4.13;2.17;;;;;;;27.89;36.71;99956.19;5075099;28;20045;-70
2022/08/01 11:15:28;;;;;;;6.97;2.83;;;;;;;28.13;36.50;99950.06;5076350;28;20119;-70
2022/08/01 11:18:00;;;;;;;4.65;2.72;;;;;;;27.98;35.33;99954.06;5074636;28;20044;-70
2022/08/01 11:20:32;;;;;;;4.93;2.60;;;;;;;27.87;35.90;99948.19;5074950;28;20049;-70
2022/08/01 11:23:28;;;;;;;3.80;2.45;;;;;;;27.73;34.86;99946.53;5074809;28;20044;-70
2022/08/01 11:26:23;;;;;;;6.18;2.55;;;;;;;28.15;35.03;99947.09;5074556;28;20477;-70
2022/08/01 11:29:15;;;;;;;3.30;2.20;;;;;;;28.15;35.47;99930.66;5075885;28;20047;-70
2022/08/01 11:31:52;;;;;;;3.78;2.40;;;;;;;28.36;34.53;99941.38;5075910;28;20045;-75
2022/08/01 11:34:21;;;;;;;4.22;2.53;;;;;;;28.21;35.19;99932.53;5075898;28;20396;-70
2022/08/01 11:36:49;;;;;;;3.92;2.40;;;;;;;28.40;34.75;99937.16;5074588;28;20486;-70
2022/08/01 11:39:27;;;;;;;4.57;2.40;;;;;;;28.01;35.40;99929.00;5074915;28;20106;-70
2022/08/01 11:42:20;;;;;;;6.07;2.78;;;;;;;28.09;34.83;99940.59;5075660;28;20050;-70
2022/08/01 11:44:51;;;;;;;5.07;2.45;;;;;;;28.06;35.72;99935.50;5075518;28;20047;-70
2022/08/01 11:47:44;;;;;;;5.20;2.20;;;;;;;27.90;35.45;99925.84;5075674;28;20127;-70
2022/08/01 11:50:36;;;;;;;4.57;2.65;;;;;;;27.83;36.06;99929.66;5075399;28;20045;-70
2022/08/01 11:53:07;;;;;;;4.72;2.72;;;;;;;28.04;35.13;99920.34;5074534;28;20116;-70